Time;durP1;ratioP1;P1;durP2;ratioP2;P2;SDS_P1;SDS_P2;PMS_P1;PMS_P2;Temp;Humidity;BMP_temperature;BMP_pressure;BME280_temperature;BME280_humidity;BME280_pressure;Samples;Min_cycle;Max_cycle;Signal;HPM_P1;HPM_P2
2021/11/08 00:00:27;;;;;;;;;;;4.90;99.90;;;;;;5071719;28;20366;-75
2021/11/08 00:02:52;;;;;;;;;;;4.80;99.90;;;;;;5072235;28;19950;-75
2021/11/08 00:05:18;;;;;;;;;;;4.90;99.90;;;;;;5072051;28;19943;-75
2021/11/08 00:07:48;;;;;;;;;;;5.10;99.90;;;;;;5065735;28;19915;-75
2021/11/08 00:10:13;;;;;;;;;;;5.20;99.90;;;;;;5075457;28;19917;-75
2021/11/08 00:12:39;;;;;;;;;;;5.40;99.90;;;;;;5075356;28;19908;-75
2021/11/08 00:15:07;;;;;;;;;;;5.40;99.90;;;;;;5092138;28;19923;-75
2021/11/08 00:20:13;;;;;;;;;;;5.50;99.90;;;;;;5070871;28;19909;-75
2021/11/08 00:22:40;;;;;;;;;;;5.40;99.90;;;;;;5071898;28;19966;-75
2021/11/08 00:25:07;;;;;;;;;;;5.40;99.90;;;;;;5053829;28;19909;-74
2021/11/08 00:27:33;;;;;;;;;;;5.40;99.90;;;;;;5071907;28;19966;-75
2021/11/08 00:29:59;;;;;;;;;;;5.40;99.90;;;;;;5071263;28;19909;-75
2021/11/08 00:32:25;;;;;;;;;;;5.40;99.90;;;;;;5080612;28;19908;-75
2021/11/08 00:34:51;;;;;;;;;;;5.40;99.90;;;;;;5091747;28;19916;-75
2021/11/08 00:37:17;;;;;;;;;;;5.40;99.90;;;;;;5082817;28;19909;-73
2021/11/08 00:39:42;;;;;;;;;;;5.40;99.90;;;;;;5052975;28;20355;-73
2021/11/08 00:42:08;;;;;;;;;;;5.40;99.90;;;;;;5053717;28;19908;-71
2021/11/08 00:44:33;;;;;;;;;;;5.30;99.90;;;;;;5071556;28;19908;-74
2021/11/08 00:47:00;;;;;;;;;;;5.30;99.90;;;;;;5071302;28;20389;-73
2021/11/08 00:49:26;;;;;;;;;;;5.20;99.90;;;;;;5053477;28;19990;-73
2021/11/08 00:51:52;;;;;;;;;;;5.20;99.90;;;;;;5052859;28;20379;-72
2021/11/08 00:54:18;;;;;;;;;;;5.10;99.90;;;;;;5053160;28;19916;-73
2021/11/08 00:56:47;;;;;;;;;;;5.10;99.90;;;;;;5051401;28;19955;-76
2021/11/08 00:59:14;;;;;;;;;;;5.10;99.90;;;;;;5049980;28;19939;-72
2021/11/08 01:01:40;;;;;;;;;;;5.20;99.90;;;;;;5067667;28;19977;-73
2021/11/08 01:04:06;;;;;;;;;;;5.10;99.90;;;;;;5050408;28;19908;-73
2021/11/08 01:06:32;;;;;;;;;;;5.00;99.90;;;;;;5051958;28;19959;-73
2021/11/08 01:08:57;;;;;;;;;;;5.00;99.90;;;;;;5088297;28;20373;-72
2021/11/08 01:11:23;;;;;;;;;;;5.00;99.90;;;;;;5088193;28;20006;-73
2021/11/08 01:13:48;;;;;;;;;;;5.00;99.90;;;;;;5090663;28;20362;-71
2021/11/08 01:16:14;;;;;;;;;;;5.10;99.90;;;;;;5091090;28;19969;-73
2021/11/08 01:18:40;;;;;;;;;;;5.10;99.90;;;;;;5091264;28;19912;-73
2021/11/08 01:21:08;;;;;;;;;;;5.10;99.90;;;;;;5072687;28;20354;-73
2021/11/08 01:23:34;;;;;;;;;;;5.10;99.90;;;;;;5073290;28;20006;-73
2021/11/08 01:26:04;;;;;;;;;;;5.00;99.90;;;;;;5091236;28;19961;-74
2021/11/08 01:28:37;;;;;;;;;;;4.80;99.90;;;;;;5091039;28;19991;-74
2021/11/08 01:31:07;;;;;;;;;;;4.80;99.90;;;;;;5092066;28;19919;-74
2021/11/08 01:33:34;;;;;;;;;;;4.90;99.90;;;;;;5095155;28;20366;-72
2021/11/08 01:38:36;;;;;;;;;;;4.60;99.90;;;;;;5076552;28;20003;-75
2021/11/08 01:41:02;;;;;;;;;;;4.40;99.90;;;;;;5074350;28;19916;-75
2021/11/08 01:43:27;;;;;;;;;;;4.30;99.90;;;;;;5056942;28;19931;-74
2021/11/08 01:45:53;;;;;;;;;;;4.30;99.90;;;;;;5056936;28;19909;-75
2021/11/08 01:48:19;;;;;;;;;;;4.10;99.90;;;;;;5074745;28;19909;-75
2021/11/08 01:50:44;;;;;;;;;;;3.80;99.90;;;;;;5074263;28;20440;-75
2021/11/08 01:53:11;;;;;;;;;;;3.70;99.90;;;;;;5074526;28;19908;-75
2021/11/08 01:55:36;;;;;;;;;;;3.50;99.90;;;;;;5074306;28;19920;-75
2021/11/08 01:58:02;;;;;;;;;;;3.30;99.90;;;;;;5056607;28;19909;-74
2021/11/08 02:00:28;;;;;;;;;;;3.20;99.90;;;;;;5074080;28;19952;-74
2021/11/08 02:02:54;;;;;;;;;;;3.10;99.90;;;;;;5074547;28;20007;-73
2021/11/08 02:05:20;;;;;;;;;;;3.10;99.90;;;;;;5056651;28;19908;-74
2021/11/08 02:07:46;;;;;;;;;;;2.90;99.90;;;;;;5086641;28;19917;-75
2021/11/08 02:10:13;;;;;;;;;;;2.90;99.90;;;;;;5093951;28;20142;-75
2021/11/08 02:12:39;;;;;;;;;;;2.90;99.90;;;;;;5094818;28;20336;-74
2021/11/08 02:15:06;;;;;;;;;;;3.20;99.90;;;;;;5094614;28;19912;-74
2021/11/08 02:17:33;;;;;;;;;;;3.00;99.90;;;;;;5094589;28;19915;-75
2021/11/08 02:20:11;;;;;;;;;;;2.80;99.90;;;;;;5094026;28;19912;-74
2021/11/08 02:22:39;;;;;;;;;;;2.70;99.90;;;;;;5075761;28;20409;-74
2021/11/08 02:25:04;;;;;;;;;;;2.50;99.90;;;;;;5094403;28;19912;-75
2021/11/08 02:27:30;;;;;;;;;;;2.40;99.90;;;;;;5094516;28;20272;-75
2021/11/08 02:29:55;;;;;;;;;;;2.30;99.90;;;;;;5093814;28;19908;-74
2021/11/08 02:32:21;;;;;;;;;;;2.30;99.90;;;;;;5094082;28;19998;-74
2021/11/08 02:34:46;;;;;;;;;;;2.30;99.90;;;;;;5094439;28;19909;-75
2021/11/08 02:37:12;;;;;;;;;;;2.50;99.90;;;;;;5085813;28;19952;-75
2021/11/08 02:39:39;;;;;;;;;;;2.40;99.90;;;;;;5055104;28;19982;-72
2021/11/08 02:42:05;;;;;;;;;;;2.30;99.90;;;;;;5073052;28;19995;-73
2021/11/08 02:44:31;;;;;;;;;;;2.20;99.90;;;;;;5073317;28;19954;-74
2021/11/08 02:46:57;;;;;;;;;;;2.10;99.90;;;;;;5073529;28;20440;-74
2021/11/08 02:49:28;;;;;;;;;;;1.90;99.90;;;;;;5073404;28;19912;-74
2021/11/08 02:52:00;;;;;;;;;;;1.80;99.90;;;;;;5072781;28;19909;-74
2021/11/08 02:54:29;;;;;;;;;;;1.90;99.90;;;;;;5073512;28;20282;-74
2021/11/08 02:56:55;;;;;;;;;;;1.70;99.90;;;;;;5073296;28;20379;-74
2021/11/08 02:59:21;;;;;;;;;;;1.70;99.90;;;;;;5073221;28;19908;-73
2021/11/08 03:01:48;;;;;;;;;;;1.70;99.90;;;;;;5055035;28;19908;-74
2021/11/08 03:04:19;;;;;;;;;;;1.70;99.90;;;;;;5073092;28;19950;-74
2021/11/08 03:06:44;;;;;;;;;;;1.70;99.90;;;;;;5077190;28;19908;-74
2021/11/08 03:09:17;;;;;;;;;;;1.60;99.90;;;;;;5074902;28;19913;-74
2021/11/08 03:11:43;;;;;;;;;;;1.60;99.90;;;;;;5092744;28;19926;-74
2021/11/08 03:14:13;;;;;;;;;;;1.70;99.90;;;;;;5074935;28;19995;-74
2021/11/08 03:16:44;;;;;;;;;;;1.60;99.90;;;;;;5093205;28;19913;-74
2021/11/08 03:19:52;;;;;;;;;;;1.50;99.90;;;;;;5093083;28;19909;-74
2021/11/08 03:22:01;;;;;;;;;;;1.40;99.90;;;;;;5084289;28;19987;-75
2021/11/08 03:24:39;;;;;;;;;;;1.20;99.90;;;;;;5074983;28;19908;-74
2021/11/08 03:29:56;;;;;;;;;;;0.90;99.90;;;;;;5093064;28;19915;-74
2021/11/08 03:32:23;;;;;;;;;;;0.90;99.90;;;;;;5092833;28;19908;-74
2021/11/08 03:34:58;;;;;;;;;;;0.80;99.90;;;;;;5074584;28;19935;-74
2021/11/08 03:37:24;;;;;;;;;;;0.90;99.90;;;;;;5083324;28;19912;-75
2021/11/08 03:39:50;;;;;;;;;;;0.80;99.90;;;;;;5071813;28;20404;-75
2021/11/08 03:42:15;;;;;;;;;;;0.90;99.90;;;;;;5072538;28;19912;-74
2021/11/08 03:44:41;;;;;;;;;;;0.80;99.90;;;;;;5054503;28;19909;-74
2021/11/08 03:47:07;;;;;;;;;;;0.80;99.90;;;;;;5054531;28;19916;-73
2021/11/08 03:49:32;;;;;;;;;;;0.80;99.90;;;;;;5054328;28;20363;-73
2021/11/08 03:52:00;;;;;;;;;;;0.80;99.90;;;;;;5053957;28;19909;-74
2021/11/08 03:54:26;;;;;;;;;;;0.90;99.90;;;;;;5053328;28;19912;-74
2021/11/08 03:56:52;;;;;;;;;;;0.80;99.90;;;;;;5054434;28;19971;-74
2021/11/08 03:59:18;;;;;;;;;;;0.70;99.90;;;;;;5072554;28;19912;-74
2021/11/08 04:01:43;;;;;;;;;;;0.90;99.90;;;;;;5053759;28;20378;-74
2021/11/08 04:04:08;;;;;;;;;;;0.80;99.90;;;;;;5071933;28;19961;-74
2021/11/08 04:06:35;;;;;;;;;;;0.70;99.90;;;;;;5074227;28;20348;-75
2021/11/08 04:09:01;;;;;;;;;;;0.70;99.90;;;;;;5091892;28;19908;-74
2021/11/08 04:11:27;;;;;;;;;;;0.60;99.90;;;;;;5073350;28;20325;-74
2021/11/08 04:13:53;;;;;;;;;;;0.60;99.90;;;;;;5073814;28;19958;-74
2021/11/08 04:16:20;;;;;;;;;;;0.50;99.90;;;;;;5091937;28;19912;-74
2021/11/08 04:18:49;;;;;;;;;;;0.60;99.90;;;;;;5091969;28;20320;-73
2021/11/08 04:21:15;;;;;;;;;;;0.60;99.90;;;;;;5091537;28;20294;-74
2021/11/08 04:23:41;;;;;;;;;;;0.60;99.90;;;;;;5091782;28;19953;-74
2021/11/08 04:26:07;;;;;;;;;;;0.60;99.90;;;;;;5091856;28;19908;-74
2021/11/08 04:28:34;;;;;;;;;;;0.40;99.90;;;;;;5073776;28;19962;-74
2021/11/08 04:31:00;;;;;;;;;;;0.40;99.90;;;;;;5073144;28;19912;-74
2021/11/08 04:33:42;;;;;;;;;;;0.30;99.90;;;;;;5091658;28;20393;-74
2021/11/08 04:49:34;;;;;;;;;;;-0.30;99.90;;;;;;5009281;28;19910;-74
2021/11/08 05:31:54;;;;;;;;;;;-0.60;99.90;;;;;;5070480;28;19950;-75
2021/11/08 05:34:20;;;;;;;;;;;-0.40;99.90;;;;;;5070768;28;19909;-74
2021/11/08 05:36:45;;;;;;;;;;;-0.30;99.90;;;;;;5070718;28;19912;-74
2021/11/08 05:39:11;;;;;;;;;;;-0.30;99.90;;;;;;5052844;28;20382;-75
2021/11/08 05:41:37;;;;;;;;;;;-0.20;99.90;;;;;;5070403;28;20378;-75
2021/11/08 05:44:03;;;;;;;;;;;-0.10;99.90;;;;;;5070797;28;19944;-75
2021/11/08 05:46:31;;;;;;;;;;;-0.10;99.90;;;;;;5070692;28;19944;-75
2021/11/08 05:48:57;;;;;;;;;;;0.00;99.90;;;;;;5052578;28;20003;-75
2021/11/08 05:51:23;;;;;;;;;;;0.10;99.90;;;;;;5070123;28;19936;-75
2021/11/08 05:53:50;;;;;;;;;;;0.00;99.90;;;;;;5070280;28;19908;-75
2021/11/08 05:56:30;;;;;;;;;;;0.00;99.90;;;;;;5086981;28;19916;-75
2021/11/08 06:51:01;;;;;;;;;;;-0.40;99.90;;;;;;5073989;28;19954;-74
2021/11/08 06:53:29;;;;;;;;;;;-0.50;99.90;;;;;;5073744;28;19908;-74
2021/11/08 06:55:56;;;;;;;;;;;-0.40;99.90;;;;;;5069096;28;19965;-74
2021/11/08 06:58:22;;;;;;;;;;;-0.50;99.90;;;;;;5093986;28;19908;-75
2021/11/08 07:00:48;;;;;;;;;;;-0.40;99.90;;;;;;5075716;28;19957;-74
2021/11/08 07:03:14;;;;;;;;;;;-0.30;99.90;;;;;;5075752;28;19953;-74
2021/11/08 07:05:39;;;;;;;;;;;-0.30;99.90;;;;;;5093687;28;20375;-73
2021/11/08 07:08:05;;;;;;;;;;;-0.30;99.90;;;;;;5095432;28;19931;-74
2021/11/08 07:10:31;;;;;;;;;;;-0.20;99.90;;;;;;5078023;28;19916;-74
2021/11/08 07:12:57;;;;;;;;;;;-0.10;99.90;;;;;;5096808;28;19987;-75
2021/11/08 07:15:23;;;;;;;;;;;0.00;99.90;;;;;;5076069;28;20032;-75
2021/11/08 07:17:49;;;;;;;;;;;0.10;99.90;;;;;;5094063;28;19908;-74
2021/11/08 07:20:15;;;;;;;;;;;0.30;99.90;;;;;;5093762;28;19908;-75
2021/11/08 07:22:41;;;;;;;;;;;0.30;99.90;;;;;;5093968;28;19908;-75
2021/11/08 07:25:07;;;;;;;;;;;0.40;99.90;;;;;;5068673;28;19954;-74
2021/11/08 07:27:33;;;;;;;;;;;0.40;99.90;;;;;;5073342;28;19986;-74
2021/11/08 07:29:58;;;;;;;;;;;0.50;99.90;;;;;;5054711;28;19958;-74
2021/11/08 07:32:25;;;;;;;;;;;0.70;99.90;;;;;;5056074;28;19912;-75
2021/11/08 07:34:51;;;;;;;;;;;0.70;99.90;;;;;;5073764;28;19909;-74
2021/11/08 07:37:16;;;;;;;;;;;0.70;99.90;;;;;;5073687;28;19958;-75
2021/11/08 07:39:41;;;;;;;;;;;0.80;99.90;;;;;;5073429;28;19908;-75
2021/11/08 07:42:07;;;;;;;;;;;1.00;99.90;;;;;;5073870;28;19909;-75
2021/11/08 07:44:33;;;;;;;;;;;0.90;99.90;;;;;;5084044;28;19912;-75
2021/11/08 07:46:58;;;;;;;;;;;1.00;99.90;;;;;;5093201;28;20363;-75
2021/11/08 07:49:24;;;;;;;;;;;1.20;99.90;;;;;;5070054;28;19908;-75
2021/11/08 07:51:50;;;;;;;;;;;1.30;99.90;;;;;;5092598;28;19939;-75
2021/11/08 07:54:16;;;;;;;;;;;1.50;99.90;;;;;;5075508;28;19961;-75
2021/11/08 07:56:41;;;;;;;;;;;1.50;99.90;;;;;;5072961;28;19912;-75
2021/11/08 07:59:07;;;;;;;;;;;1.70;99.90;;;;;;5071816;28;19909;-74
2021/11/08 08:01:32;;;;;;;;;;;1.90;99.90;;;;;;5072365;28;19912;-75
2021/11/08 08:03:58;;;;;;;;;;;2.20;99.90;;;;;;5075982;28;19915;-75
2021/11/08 08:06:23;;;;;;;;;;;3.70;99.90;;;;;;5074600;28;20272;-75
2021/11/08 08:08:50;;;;;;;;;;;5.20;99.90;;;;;;5092995;28;19912;-75
2021/11/08 08:11:17;;;;;;;;;;;5.30;99.90;;;;;;5091833;28;19961;-75
2021/11/08 08:13:43;;;;;;;;;;;5.60;99.90;;;;;;5092677;28;20271;-75
2021/11/08 08:16:14;;;;;;;;;;;6.40;99.90;;;;;;5074940;28;19916;-75
2021/11/08 08:18:40;;;;;;;;;;;6.40;99.90;;;;;;5074862;28;19915;-74
2021/11/08 08:21:06;;;;;;;;;;;5.60;99.90;;;;;;5092275;28;19951;-73
2021/11/08 08:23:32;;;;;;;;;;;5.10;99.90;;;;;;5092727;28;20019;-75
2021/11/08 08:25:58;;;;;;;;;;;6.20;99.90;;;;;;5078457;28;20394;-74
2021/11/08 08:28:23;;;;;;;;;;;7.60;99.90;;;;;;5072232;28;19915;-75
2021/11/08 08:30:49;;;;;;;;;;;8.60;99.90;;;;;;5072290;28;20457;-75
2021/11/08 08:33:15;;;;;;;;;;;9.60;99.90;;;;;;5072248;28;19912;-75
2021/11/08 08:35:41;;;;;;;;;;;9.50;99.90;;;;;;5073416;28;19912;-75
2021/11/08 08:38:11;;;;;;;;;;;9.10;99.90;;;;;;5076607;28;19908;-75
2021/11/08 08:40:37;;;;;;;;;;;9.70;99.90;;;;;;5052705;28;19908;-75
2021/11/08 08:43:04;;;;;;;;;;;10.20;99.90;;;;;;5073112;28;19919;-73
2021/11/08 08:45:30;;;;;;;;;;;11.90;99.90;;;;;;5060016;28;19963;-74
2021/11/08 08:47:55;;;;;;;;;;;13.10;99.90;;;;;;5072010;28;19950;-74
2021/11/08 08:50:21;;;;;;;;;;;13.90;99.90;;;;;;5070939;28;19909;-74
2021/11/08 08:52:47;;;;;;;;;;;13.80;99.90;;;;;;5071855;28;19915;-74
2021/11/08 08:55:12;;;;;;;;;;;14.40;99.00;;;;;;5077819;28;19912;-74
2021/11/08 08:57:38;;;;;;;;;;;17.10;95.20;;;;;;5071315;28;19913;-75
2021/11/08 09:00:05;;;;;;;;;;;16.60;93.30;;;;;;5070753;28;20279;-75
2021/11/08 09:02:30;;;;;;;;;;;15.50;94.60;;;;;;5071431;28;19999;-75
2021/11/08 09:04:56;;;;;;;;;;;14.90;95.20;;;;;;5071283;28;19952;-75
2021/11/08 09:07:21;;;;;;;;;;;14.90;95.30;;;;;;5071091;28;19909;-75
2021/11/08 09:09:47;;;;;;;;;;;15.20;94.90;;;;;;5074970;28;20014;-74
2021/11/08 09:12:13;;;;;;;;;;;15.60;94.50;;;;;;5075168;28;20074;-76
2021/11/08 09:14:39;;;;;;;;;;;15.60;94.90;;;;;;5079548;28;19916;-75
2021/11/08 09:17:05;;;;;;;;;;;16.20;93.60;;;;;;5053474;28;19912;-76
2021/11/08 09:19:31;;;;;;;;;;;16.40;94.00;;;;;;5052987;28;19909;-75
2021/11/08 09:21:56;;;;;;;;;;;16.90;93.00;;;;;;5053095;28;19962;-76
2021/11/08 09:24:22;;;;;;;;;;;17.40;92.70;;;;;;5072224;28;20492;-78
2021/11/08 09:26:49;;;;;;;;;;;17.90;91.60;;;;;;5091554;28;19999;-76
2021/11/08 09:29:15;;;;;;;;;;;18.00;92.40;;;;;;5092529;28;19908;-76
2021/11/08 09:31:41;;;;;;;;;;;18.60;90.50;;;;;;5096634;28;19908;-76
2021/11/08 09:34:09;;;;;;;;;;;18.70;89.80;;;;;;5116472;28;19900;-74
2021/11/08 09:36:36;;;;;;;;;;;18.80;89.00;;;;;;5116786;28;19966;-74
2021/11/08 09:39:04;;;;;;;;;;;18.50;87.20;;;;;;5087914;28;19908;-74
2021/11/08 09:41:31;;;;;;;;;;;18.60;89.10;;;;;;5080713;28;19940;-75
2021/11/08 09:43:59;;;;;;;;;;;18.90;86.20;;;;;;5098264;28;20425;-76
2021/11/08 09:46:25;;;;;;;;;;;18.60;86.60;;;;;;5079444;28;19984;-76
2021/11/08 09:48:51;;;;;;;;;;;17.90;86.20;;;;;;5096716;28;19912;-76
2021/11/08 09:51:17;;;;;;;;;;;14.40;91.80;;;;;;5069012;28;19923;-76
2021/11/08 09:53:43;;;;;;;;;;;14.80;93.30;;;;;;5061526;28;19912;-76
2021/11/08 09:56:09;;;;;;;;;;;17.20;91.40;;;;;;5066397;28;19958;-75
2021/11/08 09:58:34;;;;;;;;;;;17.20;87.20;;;;;;5057531;28;20167;-76
2021/11/08 10:01:04;;;;;;;;;;;13.70;93.10;;;;;;5056322;28;20015;-75
2021/11/08 10:03:31;;;;;;;;;;;11.60;96.20;;;;;;5087213;28;19908;-76
2021/11/08 10:05:57;;;;;;;;;;;11.30;99.00;;;;;;5081882;28;19927;-75
2021/11/08 10:08:34;;;;;;;;;;;13.40;95.10;;;;;;5082584;28;20003;-75
2021/11/08 10:11:01;;;;;;;;;;;11.20;97.00;;;;;;5062102;28;19917;-76
2021/11/08 10:13:28;;;;;;;;;;;12.40;99.00;;;;;;5074560;28;19917;-74
2021/11/08 10:15:56;;;;;;;;;;;15.90;93.40;;;;;;5079245;28;20235;-76
2021/11/08 10:18:22;;;;;;;;;;;17.20;91.60;;;;;;5067678;28;19908;-76
2021/11/08 10:20:49;;;;;;;;;;;17.60;86.20;;;;;;5084311;28;19915;-76
2021/11/08 10:23:17;;;;;;;;;;;17.60;87.90;;;;;;5082715;28;19909;-76
2021/11/08 10:25:42;;;;;;;;;;;17.00;84.90;;;;;;5067114;28;20292;-76
2021/11/08 10:28:15;;;;;;;;;;;17.10;88.20;;;;;;5091707;28;20377;-76
2021/11/08 10:30:41;;;;;;;;;;;16.80;89.40;;;;;;5090613;28;19908;-75
2021/11/08 10:33:13;;;;;;;;;;;14.50;92.30;;;;;;5091588;28;19953;-73
2021/11/08 10:35:40;;;;;;;;;;;13.30;93.20;;;;;;5076369;28;19912;-75
2021/11/08 10:38:07;;;;;;;;;;;13.20;95.60;;;;;;5093171;28;19919;-74
2021/11/08 10:40:44;;;;;;;;;;;12.60;95.30;;;;;;5086487;28;19912;-74
2021/11/08 10:43:10;;;;;;;;;;;12.50;95.30;;;;;;5061720;28;19908;-74
2021/11/08 10:45:46;;;;;;;;;;;11.00;97.50;;;;;;5092141;28;19912;-73
2021/11/08 10:48:11;;;;;;;;;;;10.20;99.40;;;;;;5084280;28;19953;-73
2021/11/08 10:50:41;;;;;;;;;;;9.30;99.90;;;;;;5093013;28;19908;-75
2021/11/08 10:53:06;;;;;;;;;;;8.60;99.90;;;;;;5074659;28;20366;-74
2021/11/08 10:55:32;;;;;;;;;;;8.60;99.90;;;;;;5076229;28;19923;-73
2021/11/08 10:58:11;;;;;;;;;;;8.50;99.90;;;;;;5077407;28;19908;-74
2021/11/08 11:00:46;;;;;;;;;;;8.70;99.90;;;;;;5086164;28;19987;-74
2021/11/08 11:03:13;;;;;;;;;;;8.60;99.90;;;;;;5064607;28;20003;-73
2021/11/08 11:05:41;;;;;;;;;;;8.80;99.90;;;;;;5075520;28;19919;-74
2021/11/08 11:08:10;;;;;;;;;;;8.80;99.90;;;;;;5074510;28;19963;-74
2021/11/08 11:10:35;;;;;;;;;;;8.80;99.90;;;;;;5081631;28;20133;-74
2021/11/08 11:13:01;;;;;;;;;;;8.90;99.90;;;;;;5061298;28;19991;-77
2021/11/08 11:15:32;;;;;;;;;;;8.80;99.90;;;;;;5070995;28;19916;-76
2021/11/08 11:17:59;;;;;;;;;;;8.70;99.90;;;;;;5076511;28;20044;-77
2021/11/08 11:20:31;;;;;;;;;;;8.70;99.90;;;;;;5092733;28;19938;-76
2021/11/08 11:23:05;;;;;;;;;;;8.80;99.90;;;;;;5093085;28;19908;-74
2021/11/08 11:25:36;;;;;;;;;;;9.00;99.90;;;;;;5064441;28;19916;-74
2021/11/08 11:28:03;;;;;;;;;;;8.80;99.90;;;;;;5054823;28;19908;-74
2021/11/08 11:30:31;;;;;;;;;;;8.60;99.90;;;;;;5054311;28;19962;-72
2021/11/08 11:32:57;;;;;;;;;;;8.30;99.90;;;;;;5072115;28;19914;-73
2021/11/08 11:35:23;;;;;;;;;;;8.30;99.90;;;;;;5082993;28;19971;-74
2021/11/08 11:38:01;;;;;;;;;;;8.20;99.90;;;;;;5060961;28;19908;-73
2021/11/08 11:40:28;;;;;;;;;;;8.10;99.90;;;;;;5061082;28;20393;-73
2021/11/08 11:42:55;;;;;;;;;;;7.90;99.90;;;;;;5069792;28;19947;-74
2021/11/08 11:45:21;;;;;;;;;;;8.00;99.90;;;;;;5064214;28;20412;-73
2021/11/08 11:47:55;;;;;;;;;;;8.30;99.90;;;;;;5062381;28;19916;-74
2021/11/08 11:50:21;;;;;;;;;;;8.50;99.90;;;;;;5062742;28;19908;-74
2021/11/08 11:52:47;;;;;;;;;;;8.30;99.90;;;;;;5074136;28;20362;-72
2021/11/08 11:55:12;;;;;;;;;;;8.30;99.90;;;;;;5082882;28;19913;-74
2021/11/08 11:57:38;;;;;;;;;;;8.10;99.90;;;;;;5072294;28;20435;-74
2021/11/08 12:00:05;;;;;;;;;;;8.10;99.90;;;;;;5072026;28;19916;-75
2021/11/08 12:02:30;;;;;;;;;;;8.00;99.90;;;;;;5054527;28;20345;-74
2021/11/08 12:04:56;;;;;;;;;;;8.00;99.90;;;;;;5072240;28;19909;-74
2021/11/08 12:07:21;;;;;;;;;;;8.00;99.90;;;;;;5053988;28;19912;-74
2021/11/08 12:09:47;;;;;;;;;;;8.10;99.90;;;;;;5053511;28;20274;-74
2021/11/08 12:12:23;;;;;;;;;;;8.00;99.90;;;;;;5072591;28;19920;-74
2021/11/08 12:15:07;;;;;;;;;;;8.00;99.90;;;;;;5071726;28;19909;-74
2021/11/08 12:17:40;;;;;;;;;;;8.30;99.90;;;;;;5072039;28;20480;-75
2021/11/08 12:20:10;;;;;;;;;;;8.60;99.90;;;;;;5053725;28;19935;-74
2021/11/08 12:22:37;;;;;;;;;;;8.70;99.90;;;;;;5069448;28;20278;-74
2021/11/08 12:25:02;;;;;;;;;;;8.50;99.90;;;;;;5078097;28;19917;-74
2021/11/08 12:27:37;;;;;;;;;;;8.40;99.90;;;;;;5092108;28;20026;-74
2021/11/08 12:30:08;;;;;;;;;;;8.30;99.90;;;;;;5073324;28;19923;-75
2021/11/08 12:32:47;;;;;;;;;;;8.30;99.90;;;;;;5092097;28;20365;-74
2021/11/08 12:35:17;;;;;;;;;;;8.40;99.90;;;;;;5091978;28;19958;-75
2021/11/08 12:37:43;;;;;;;;;;;8.30;99.90;;;;;;5073929;28;19923;-75
2021/11/08 12:40:11;;;;;;;;;;;8.10;99.90;;;;;;5091312;28;19908;-74
2021/11/08 12:42:43;;;;;;;;;;;8.00;99.90;;;;;;5091872;28;19909;-75
2021/11/08 12:45:11;;;;;;;;;;;7.80;99.90;;;;;;5091863;28;19908;-74
2021/11/08 12:47:36;;;;;;;;;;;7.90;99.90;;;;;;5074321;28;20280;-74
2021/11/08 12:50:02;;;;;;;;;;;7.90;99.90;;;;;;5069467;28;19912;-74
2021/11/08 12:52:31;;;;;;;;;;;8.00;99.90;;;;;;5071573;28;19908;-75
2021/11/08 12:55:06;;;;;;;;;;;8.10;99.90;;;;;;5070377;28;19908;-75
2021/11/08 12:57:32;;;;;;;;;;;8.10;99.90;;;;;;5082128;28;19924;-75
2021/11/08 13:00:07;;;;;;;;;;;8.00;99.90;;;;;;5072493;28;20042;-75
2021/11/08 13:02:38;;;;;;;;;;;7.90;99.90;;;;;;5077316;28;19908;-75
2021/11/08 13:05:05;;;;;;;;;;;7.90;99.90;;;;;;5071866;28;20003;-75
2021/11/08 13:07:34;;;;;;;;;;;8.00;99.90;;;;;;5079214;28;19909;-74
2021/11/08 13:10:01;;;;;;;;;;;8.10;99.90;;;;;;5083978;28;19920;-75
2021/11/08 13:12:29;;;;;;;;;;;7.90;99.90;;;;;;5056041;28;19908;-74
2021/11/08 13:15:09;;;;;;;;;;;7.80;99.90;;;;;;5073304;28;20450;-74
2021/11/08 13:18:04;;;;;;;;;;;7.80;99.90;;;;;;5055581;28;20374;-74
2021/11/08 13:20:31;;;;;;;;;;;7.70;99.90;;;;;;5061253;28;19908;-74
2021/11/08 13:22:59;;;;;;;;;;;7.90;99.90;;;;;;5082859;28;19908;-74
2021/11/08 13:25:27;;;;;;;;;;;7.90;99.90;;;;;;5081251;28;20286;-75
2021/11/08 13:28:00;;;;;;;;;;;8.00;99.90;;;;;;5076156;28;19978;-74
2021/11/08 13:30:39;;;;;;;;;;;8.00;99.90;;;;;;5069107;28;20007;-74
2021/11/08 13:33:05;;;;;;;;;;;8.10;99.90;;;;;;5078930;28;20386;-74
2021/11/08 13:35:31;;;;;;;;;;;8.10;99.90;;;;;;5073332;28;20415;-75
2021/11/08 13:38:08;;;;;;;;;;;8.10;99.90;;;;;;5076063;28;20369;-74
2021/11/08 13:40:36;;;;;;;;;;;7.90;99.90;;;;;;5076497;28;20288;-74
2021/11/08 13:43:09;;;;;;;;;;;7.90;99.90;;;;;;5079273;28;19930;-74
2021/11/08 13:45:49;;;;;;;;;;;7.80;99.90;;;;;;5085582;28;19912;-74
2021/11/08 13:48:40;;;;;;;;;;;7.80;99.90;;;;;;5075236;28;19912;-74
2021/11/08 13:51:08;;;;;;;;;;;8.00;99.90;;;;;;5084160;28;20473;-74
2021/11/08 13:53:35;;;;;;;;;;;8.10;99.90;;;;;;5096839;28;20000;-74
2021/11/08 13:56:05;;;;;;;;;;;8.00;99.90;;;;;;5086401;28;19912;-74
2021/11/08 13:58:31;;;;;;;;;;;8.00;99.90;;;;;;5078118;28;19908;-74
2021/11/08 14:01:01;;;;;;;;;;;7.80;99.90;;;;;;5074666;28;20290;-74
2021/11/08 14:03:34;;;;;;;;;;;7.80;99.90;;;;;;5074877;28;20271;-73
2021/11/08 14:05:59;;;;;;;;;;;7.80;99.90;;;;;;5096799;28;19912;-75
2021/11/08 14:08:25;;;;;;;;;;;7.90;99.90;;;;;;5084380;28;20414;-75
2021/11/08 14:10:51;;;;;;;;;;;7.90;99.90;;;;;;5075987;28;19916;-75
2021/11/08 14:13:17;;;;;;;;;;;7.90;99.90;;;;;;5094369;28;19912;-75
2021/11/08 14:15:42;;;;;;;;;;;8.00;99.90;;;;;;5093533;28;19916;-75
2021/11/08 14:18:17;;;;;;;;;;;8.00;99.90;;;;;;5089707;28;19931;-75
2021/11/08 14:20:43;;;;;;;;;;;8.00;99.90;;;;;;5070807;28;19921;-76
2021/11/08 14:23:08;;;;;;;;;;;7.80;99.90;;;;;;5087148;28;19912;-75
2021/11/08 14:25:34;;;;;;;;;;;7.70;99.90;;;;;;5076704;28;19952;-75
2021/11/08 14:27:59;;;;;;;;;;;7.50;99.90;;;;;;5084595;28;19912;-76
2021/11/08 14:30:26;;;;;;;;;;;7.30;99.90;;;;;;5074924;28;20131;-75
2021/11/08 14:32:52;;;;;;;;;;;7.30;99.90;;;;;;5080424;28;19908;-76
2021/11/08 14:35:22;;;;;;;;;;;7.00;99.90;;;;;;5066985;28;19909;-75
2021/11/08 14:40:30;;;;;;;;;;;7.00;99.90;;;;;;5082496;28;19908;-76
2021/11/08 14:42:55;;;;;;;;;;;7.10;99.90;;;;;;5089273;28;19909;-76
2021/11/08 14:45:23;;;;;;;;;;;7.00;99.90;;;;;;5090260;28;20435;-75
2021/11/08 14:47:56;;;;;;;;;;;6.90;99.90;;;;;;5093364;28;19961;-76
2021/11/08 14:50:28;;;;;;;;;;;6.90;99.90;;;;;;5082384;28;20397;-76
2021/11/08 14:52:54;;;;;;;;;;;6.80;99.90;;;;;;5077691;28;19995;-75
2021/11/08 14:55:21;;;;;;;;;;;6.90;99.90;;;;;;5072473;28;19915;-76
2021/11/08 14:57:51;;;;;;;;;;;6.80;99.90;;;;;;5056037;28;19909;-76
2021/11/08 15:00:18;;;;;;;;;;;6.70;99.90;;;;;;5091359;28;20424;-76
2021/11/08 15:02:44;;;;;;;;;;;6.60;99.90;;;;;;5073398;28;19912;-76
2021/11/08 15:05:21;;;;;;;;;;;6.50;99.90;;;;;;5072877;28;19928;-76
2021/11/08 15:07:47;;;;;;;;;;;6.60;99.90;;;;;;5077412;28;19915;-76
2021/11/08 15:10:15;;;;;;;;;;;6.60;99.90;;;;;;5092663;28;19920;-76
2021/11/08 15:12:42;;;;;;;;;;;6.60;99.90;;;;;;5066743;28;19909;-76
2021/11/08 15:15:09;;;;;;;;;;;6.40;99.90;;;;;;5087003;28;19970;-76
2021/11/08 15:17:39;;;;;;;;;;;6.30;99.90;;;;;;5073705;28;19916;-76
2021/11/08 15:20:08;;;;;;;;;;;6.40;99.90;;;;;;5072141;28;19908;-76
2021/11/08 15:22:34;;;;;;;;;;;6.30;99.90;;;;;;5059648;28;19916;-75
2021/11/08 15:25:32;;;;;;;;;;;6.00;99.90;;;;;;5082614;28;19909;-76
2021/11/08 15:28:03;;;;;;;;;;;5.60;99.90;;;;;;5013639;28;19938;-76
2021/11/08 15:30:30;;;;;;;;;;;5.40;99.90;;;;;;5073544;28;19912;-76
2021/11/08 15:33:05;;;;;;;;;;;5.20;99.90;;;;;;5071436;28;19909;-76
2021/11/08 15:35:39;;;;;;;;;;;5.00;99.90;;;;;;5072738;28;19958;-76
2021/11/08 15:38:08;;;;;;;;;;;4.80;99.90;;;;;;5089064;28;20287;-76
2021/11/08 15:40:33;;;;;;;;;;;4.80;99.90;;;;;;5078981;28;19935;-75
2021/11/08 15:43:03;;;;;;;;;;;5.00;99.90;;;;;;5065106;28;20458;-76
2021/11/08 15:45:29;;;;;;;;;;;5.10;99.90;;;;;;5075115;28;19909;-76
2021/11/08 15:47:56;;;;;;;;;;;4.90;99.90;;;;;;5084863;28;19914;-75
2021/11/08 15:50:22;;;;;;;;;;;4.80;99.90;;;;;;5078762;28;19908;-75
2021/11/08 15:52:48;;;;;;;;;;;4.40;99.90;;;;;;5084572;28;19915;-76
2021/11/08 15:55:13;;;;;;;;;;;4.10;99.90;;;;;;5064039;28;19919;-75
2021/11/08 15:57:39;;;;;;;;;;;3.80;99.90;;;;;;5077427;28;19912;-75
2021/11/08 16:00:06;;;;;;;;;;;3.50;99.90;;;;;;5091279;28;19908;-75
2021/11/08 16:02:36;;;;;;;;;;;3.40;99.90;;;;;;5073314;28;19995;-75
2021/11/08 16:05:03;;;;;;;;;;;3.30;99.90;;;;;;5074884;28;19969;-75
2021/11/08 16:07:29;;;;;;;;;;;3.30;99.90;;;;;;5085200;28;19908;-75
2021/11/08 16:09:55;;;;;;;;;;;3.30;99.90;;;;;;5087210;28;19912;-75
2021/11/08 16:12:20;;;;;;;;;;;3.20;99.90;;;;;;5076094;28;19916;-75
2021/11/08 16:14:46;;;;;;;;;;;3.10;99.90;;;;;;5073874;28;19963;-75
2021/11/08 16:17:11;;;;;;;;;;;3.20;99.90;;;;;;5075337;28;19920;-75
2021/11/08 16:19:37;;;;;;;;;;;3.10;99.90;;;;;;5072052;28;19924;-75
2021/11/08 16:22:02;;;;;;;;;;;3.00;99.90;;;;;;5071615;28;19912;-75
2021/11/08 16:24:28;;;;;;;;;;;2.90;99.90;;;;;;5072412;28;19923;-75
2021/11/08 16:26:53;;;;;;;;;;;2.90;99.90;;;;;;5085945;28;20045;-75